sensor_id;sensor_type;location;lat;lon;timestamp;P1;durP1;ratioP1;P2;durP2;ratioP2
177;SDS011;77;48.792;9.032;2023-04-24T00:01:26;4.20;;;2.13;;
177;SDS011;77;48.792;9.032;2023-04-24T00:03:52;3.40;;;1.90;;
177;SDS011;77;48.792;9.032;2023-04-24T00:06:17;5.33;;;2.10;;
177;SDS011;77;48.792;9.032;2023-04-24T00:08:42;3.87;;;2.00;;
177;SDS011;77;48.792;9.032;2023-04-24T00:11:07;7.13;;;2.30;;
177;SDS011;77;48.792;9.032;2023-04-24T00:13:34;5.53;;;2.30;;
177;SDS011;77;48.792;9.032;2023-04-24T00:15:59;4.63;;;2.10;;
177;SDS011;77;48.792;9.032;2023-04-24T00:18:24;4.50;;;2.20;;
177;SDS011;77;48.792;9.032;2023-04-24T00:20:49;3.83;;;1.90;;
177;SDS011;77;48.792;9.032;2023-04-24T00:23:14;5.50;;;2.07;;
177;SDS011;77;48.792;9.032;2023-04-24T00:25:40;4.63;;;1.90;;
177;SDS011;77;48.792;9.032;2023-04-24T00:28:05;3.25;;;2.00;;
177;SDS011;77;48.792;9.032;2023-04-24T00:30:31;7.63;;;1.73;;
177;SDS011;77;48.792;9.032;2023-04-24T00:32:56;4.27;;;1.90;;
177;SDS011;77;48.792;9.032;2023-04-24T00:35:22;3.70;;;1.90;;
177;SDS011;77;48.792;9.032;2023-04-24T00:37:47;3.20;;;1.80;;
177;SDS011;77;48.792;9.032;2023-04-24T00:40:12;3.60;;;1.90;;
177;SDS011;77;48.792;9.032;2023-04-24T00:42:37;3.50;;;1.90;;
177;SDS011;77;48.792;9.032;2023-04-24T00:45:03;6.20;;;2.17;;
177;SDS011;77;48.792;9.032;2023-04-24T00:47:30;3.73;;;2.00;;
177;SDS011;77;48.792;9.032;2023-04-24T00:49:55;3.30;;;1.80;;
177;SDS011;77;48.792;9.032;2023-04-24T00:52:20;4.60;;;1.90;;
177;SDS011;77;48.792;9.032;2023-04-24T00:54:45;3.83;;;2.00;;
177;SDS011;77;48.792;9.032;2023-04-24T00:57:11;7.67;;;1.90;;
177;SDS011;77;48.792;9.032;2023-04-24T00:59:37;4.53;;;1.90;;
177;SDS011;77;48.792;9.032;2023-04-24T01:02:02;3.80;;;2.00;;
177;SDS011;77;48.792;9.032;2023-04-24T01:04:29;5.43;;;2.20;;
177;SDS011;77;48.792;9.032;2023-04-24T01:06:54;5.13;;;1.90;;
177;SDS011;77;48.792;9.032;2023-04-24T01:09:20;4.20;;;1.80;;
177;SDS011;77;48.792;9.032;2023-04-24T01:11:46;4.33;;;1.90;;
177;SDS011;77;48.792;9.032;2023-04-24T01:14:11;6.77;;;1.97;;
177;SDS011;77;48.792;9.032;2023-04-24T01:16:36;4.33;;;2.00;;
177;SDS011;77;48.792;9.032;2023-04-24T01:19:02;4.27;;;1.80;;
177;SDS011;77;48.792;9.032;2023-04-24T01:21:28;3.37;;;1.83;;
177;SDS011;77;48.792;9.032;2023-04-24T01:23:56;3.63;;;1.83;;
177;SDS011;77;48.792;9.032;2023-04-24T01:26:22;3.67;;;1.93;;
177;SDS011;77;48.792;9.032;2023-04-24T01:28:47;3.23;;;1.90;;
177;SDS011;77;48.792;9.032;2023-04-24T01:31:12;4.00;;;1.90;;
177;SDS011;77;48.792;9.032;2023-04-24T01:33:38;3.63;;;1.90;;
177;SDS011;77;48.792;9.032;2023-04-24T01:36:03;3.53;;;1.80;;
177;SDS011;77;48.792;9.032;2023-04-24T01:38:28;6.00;;;1.97;;
177;SDS011;77;48.792;9.032;2023-04-24T01:40:55;6.03;;;2.30;;
177;SDS011;77;48.792;9.032;2023-04-24T01:43:20;6.00;;;2.20;;
177;SDS011;77;48.792;9.032;2023-04-24T01:45:45;6.13;;;2.00;;
177;SDS011;77;48.792;9.032;2023-04-24T01:48:11;3.70;;;2.00;;
177;SDS011;77;48.792;9.032;2023-04-24T01:50:36;3.10;;;1.87;;
177;SDS011;77;48.792;9.032;2023-04-24T01:53:01;4.03;;;2.07;;
177;SDS011;77;48.792;9.032;2023-04-24T01:55:26;3.73;;;2.10;;
177;SDS011;77;48.792;9.032;2023-04-24T01:57:53;4.27;;;1.90;;
177;SDS011;77;48.792;9.032;2023-04-24T02:00:19;3.83;;;2.00;;
177;SDS011;77;48.792;9.032;2023-04-24T02:02:44;3.40;;;1.70;;
177;SDS011;77;48.792;9.032;2023-04-24T02:05:09;3.40;;;1.90;;
177;SDS011;77;48.792;9.032;2023-04-24T02:07:35;4.10;;;2.10;;
177;SDS011;77;48.792;9.032;2023-04-24T02:10:00;5.57;;;2.00;;
177;SDS011;77;48.792;9.032;2023-04-24T02:12:25;4.80;;;1.90;;
177;SDS011;77;48.792;9.032;2023-04-24T02:14:51;6.70;;;2.20;;
177;SDS011;77;48.792;9.032;2023-04-24T02:17:17;4.67;;;2.10;;
177;SDS011;77;48.792;9.032;2023-04-24T02:19:42;3.70;;;2.00;;
177;SDS011;77;48.792;9.032;2023-04-24T02:22:07;8.43;;;2.37;;
177;SDS011;77;48.792;9.032;2023-04-24T02:24:32;3.83;;;2.00;;
177;SDS011;77;48.792;9.032;2023-04-24T02:26:57;3.70;;;1.90;;
177;SDS011;77;48.792;9.032;2023-04-24T02:29:23;4.87;;;2.20;;
177;SDS011;77;48.792;9.032;2023-04-24T02:31:49;4.30;;;2.20;;
177;SDS011;77;48.792;9.032;2023-04-24T02:34:14;5.57;;;2.20;;
177;SDS011;77;48.792;9.032;2023-04-24T02:36:39;4.60;;;2.27;;
177;SDS011;77;48.792;9.032;2023-04-24T02:39:05;5.47;;;2.30;;
177;SDS011;77;48.792;9.032;2023-04-24T02:41:30;5.80;;;2.53;;
177;SDS011;77;48.792;9.032;2023-04-24T02:43:55;4.43;;;2.30;;
177;SDS011;77;48.792;9.032;2023-04-24T02:46:20;5.70;;;2.30;;
177;SDS011;77;48.792;9.032;2023-04-24T02:48:46;5.70;;;2.40;;
177;SDS011;77;48.792;9.032;2023-04-24T02:51:17;4.63;;;2.33;;
177;SDS011;77;48.792;9.032;2023-04-24T02:53:42;4.80;;;2.20;;
177;SDS011;77;48.792;9.032;2023-04-24T02:56:08;4.80;;;2.30;;
177;SDS011;77;48.792;9.032;2023-04-24T02:58:33;6.83;;;2.30;;
177;SDS011;77;48.792;9.032;2023-04-24T03:00:58;10.93;;;2.27;;
177;SDS011;77;48.792;9.032;2023-04-24T03:03:23;4.63;;;2.10;;
177;SDS011;77;48.792;9.032;2023-04-24T03:05:50;8.43;;;2.53;;
177;SDS011;77;48.792;9.032;2023-04-24T03:08:15;5.07;;;2.63;;
177;SDS011;77;48.792;9.032;2023-04-24T03:10:40;4.90;;;2.40;;
177;SDS011;77;48.792;9.032;2023-04-24T03:13:05;6.20;;;2.40;;
177;SDS011;77;48.792;9.032;2023-04-24T03:15:30;6.23;;;2.47;;
177;SDS011;77;48.792;9.032;2023-04-24T03:17:55;4.00;;;2.10;;
177;SDS011;77;48.792;9.032;2023-04-24T03:20:21;4.53;;;2.20;;
177;SDS011;77;48.792;9.032;2023-04-24T03:22:47;4.73;;;2.23;;
177;SDS011;77;48.792;9.032;2023-04-24T03:25:12;4.70;;;2.27;;
177;SDS011;77;48.792;9.032;2023-04-24T03:27:38;5.13;;;2.30;;
177;SDS011;77;48.792;9.032;2023-04-24T03:30:03;4.83;;;2.30;;
177;SDS011;77;48.792;9.032;2023-04-24T03:32:28;4.93;;;2.17;;
177;SDS011;77;48.792;9.032;2023-04-24T03:34:53;4.23;;;2.10;;
177;SDS011;77;48.792;9.032;2023-04-24T03:37:18;10.10;;;2.40;;
177;SDS011;77;48.792;9.032;2023-04-24T03:39:45;4.33;;;2.00;;
177;SDS011;77;48.792;9.032;2023-04-24T03:42:10;4.10;;;2.30;;
177;SDS011;77;48.792;9.032;2023-04-24T03:44:35;5.37;;;2.10;;
177;SDS011;77;48.792;9.032;2023-04-24T03:47:00;4.87;;;2.27;;
177;SDS011;77;48.792;9.032;2023-04-24T03:49:26;5.38;;;2.28;;
177;SDS011;77;48.792;9.032;2023-04-24T03:51:51;5.70;;;2.23;;
177;SDS011;77;48.792;9.032;2023-04-24T03:54:16;5.13;;;2.30;;
177;SDS011;77;48.792;9.032;2023-04-24T03:56:42;5.63;;;2.50;;
177;SDS011;77;48.792;9.032;2023-04-24T03:59:08;4.30;;;1.93;;
177;SDS011;77;48.792;9.032;2023-04-24T04:01:33;4.27;;;2.20;;
177;SDS011;77;48.792;9.032;2023-04-24T04:03:58;5.20;;;2.30;;
177;SDS011;77;48.792;9.032;2023-04-24T04:06:23;4.87;;;2.40;;
177;SDS011;77;48.792;9.032;2023-04-24T04:08:48;4.10;;;2.10;;
177;SDS011;77;48.792;9.032;2023-04-24T04:11:13;4.93;;;2.07;;
177;SDS011;77;48.792;9.032;2023-04-24T04:13:40;5.27;;;2.30;;
177;SDS011;77;48.792;9.032;2023-04-24T04:16:05;5.10;;;2.10;;
177;SDS011;77;48.792;9.032;2023-04-24T04:18:30;4.80;;;2.30;;
177;SDS011;77;48.792;9.032;2023-04-24T04:20:55;4.70;;;2.30;;
177;SDS011;77;48.792;9.032;2023-04-24T04:23:21;5.20;;;2.40;;
177;SDS011;77;48.792;9.032;2023-04-24T04:25:46;4.40;;;2.20;;
177;SDS011;77;48.792;9.032;2023-04-24T04:28:11;4.00;;;2.30;;
177;SDS011;77;48.792;9.032;2023-04-24T04:30:37;5.80;;;2.50;;
177;SDS011;77;48.792;9.032;2023-04-24T04:33:03;4.00;;;2.20;;
177;SDS011;77;48.792;9.032;2023-04-24T04:35:28;4.57;;;2.43;;
177;SDS011;77;48.792;9.032;2023-04-24T04:37:53;6.43;;;2.43;;
177;SDS011;77;48.792;9.032;2023-04-24T04:40:18;4.20;;;2.40;;
177;SDS011;77;48.792;9.032;2023-04-24T04:42:43;4.50;;;2.40;;
177;SDS011;77;48.792;9.032;2023-04-24T04:45:09;6.00;;;2.50;;
177;SDS011;77;48.792;9.032;2023-04-24T04:47:35;4.90;;;2.50;;
177;SDS011;77;48.792;9.032;2023-04-24T04:50:00;4.80;;;2.43;;
177;SDS011;77;48.792;9.032;2023-04-24T04:52:26;4.30;;;2.30;;
177;SDS011;77;48.792;9.032;2023-04-24T04:54:51;6.17;;;2.70;;
177;SDS011;77;48.792;9.032;2023-04-24T04:57:16;5.55;;;2.70;;
177;SDS011;77;48.792;9.032;2023-04-24T04:59:41;5.27;;;2.70;;
177;SDS011;77;48.792;9.032;2023-04-24T05:02:06;5.68;;;2.70;;
177;SDS011;77;48.792;9.032;2023-04-24T05:04:33;4.60;;;2.73;;
177;SDS011;77;48.792;9.032;2023-04-24T05:06:58;5.03;;;2.70;;
177;SDS011;77;48.792;9.032;2023-04-24T05:09:23;5.60;;;2.90;;
177;SDS011;77;48.792;9.032;2023-04-24T05:11:48;4.40;;;2.60;;
177;SDS011;77;48.792;9.032;2023-04-24T05:14:13;3.83;;;2.33;;
177;SDS011;77;48.792;9.032;2023-04-24T05:16:38;5.20;;;2.80;;
177;SDS011;77;48.792;9.032;2023-04-24T05:19:04;4.87;;;2.60;;
177;SDS011;77;48.792;9.032;2023-04-24T05:21:30;5.33;;;2.70;;
177;SDS011;77;48.792;9.032;2023-04-24T05:23:55;7.47;;;2.53;;
177;SDS011;77;48.792;9.032;2023-04-24T05:26:21;7.50;;;2.70;;
177;SDS011;77;48.792;9.032;2023-04-24T05:28:46;9.83;;;2.80;;
177;SDS011;77;48.792;9.032;2023-04-24T05:31:11;5.37;;;3.10;;
177;SDS011;77;48.792;9.032;2023-04-24T05:33:36;6.93;;;3.90;;
177;SDS011;77;48.792;9.032;2023-04-24T05:36:01;6.73;;;3.57;;
177;SDS011;77;48.792;9.032;2023-04-24T05:38:28;6.40;;;3.63;;
177;SDS011;77;48.792;9.032;2023-04-24T05:40:53;5.77;;;3.50;;
177;SDS011;77;48.792;9.032;2023-04-24T05:43:20;5.63;;;3.27;;
177;SDS011;77;48.792;9.032;2023-04-24T05:45:45;5.87;;;3.67;;
177;SDS011;77;48.792;9.032;2023-04-24T05:48:10;5.57;;;3.30;;
177;SDS011;77;48.792;9.032;2023-04-24T05:50:35;4.50;;;3.00;;
177;SDS011;77;48.792;9.032;2023-04-24T05:53:03;4.17;;;2.73;;
177;SDS011;77;48.792;9.032;2023-04-24T05:55:30;6.17;;;3.10;;
177;SDS011;77;48.792;9.032;2023-04-24T05:57:55;5.77;;;3.17;;
177;SDS011;77;48.792;9.032;2023-04-24T06:00:20;5.03;;;3.07;;
177;SDS011;77;48.792;9.032;2023-04-24T06:02:45;4.87;;;2.90;;
177;SDS011;77;48.792;9.032;2023-04-24T06:05:10;4.63;;;2.90;;
177;SDS011;77;48.792;9.032;2023-04-24T06:07:36;6.10;;;2.70;;
177;SDS011;77;48.792;9.032;2023-04-24T06:10:01;4.23;;;2.70;;
177;SDS011;77;48.792;9.032;2023-04-24T06:12:27;7.73;;;3.20;;
177;SDS011;77;48.792;9.032;2023-04-24T06:14:52;6.07;;;3.43;;
177;SDS011;77;48.792;9.032;2023-04-24T06:17:18;5.80;;;2.90;;
177;SDS011;77;48.792;9.032;2023-04-24T06:19:43;6.33;;;3.03;;
177;SDS011;77;48.792;9.032;2023-04-24T06:22:08;5.83;;;3.50;;
177;SDS011;77;48.792;9.032;2023-04-24T06:24:33;6.03;;;3.30;;
177;SDS011;77;48.792;9.032;2023-04-24T06:26:59;6.93;;;3.20;;
177;SDS011;77;48.792;9.032;2023-04-24T06:29:25;5.17;;;3.30;;
177;SDS011;77;48.792;9.032;2023-04-24T06:31:50;5.30;;;3.10;;
177;SDS011;77;48.792;9.032;2023-04-24T06:34:15;6.90;;;3.33;;
177;SDS011;77;48.792;9.032;2023-04-24T06:36:41;4.93;;;3.37;;
177;SDS011;77;48.792;9.032;2023-04-24T06:39:06;4.63;;;3.10;;
177;SDS011;77;48.792;9.032;2023-04-24T06:41:31;5.87;;;3.10;;
177;SDS011;77;48.792;9.032;2023-04-24T06:43:56;6.33;;;3.40;;
177;SDS011;77;48.792;9.032;2023-04-24T06:46:23;7.93;;;3.60;;
177;SDS011;77;48.792;9.032;2023-04-24T06:48:48;4.73;;;3.00;;
177;SDS011;77;48.792;9.032;2023-04-24T06:51:13;6.60;;;3.70;;
177;SDS011;77;48.792;9.032;2023-04-24T06:53:38;8.27;;;3.67;;
177;SDS011;77;48.792;9.032;2023-04-24T06:56:03;5.93;;;3.80;;
177;SDS011;77;48.792;9.032;2023-04-24T06:58:29;4.70;;;3.23;;
177;SDS011;77;48.792;9.032;2023-04-24T07:00:55;7.00;;;3.60;;
177;SDS011;77;48.792;9.032;2023-04-24T07:03:21;6.33;;;3.23;;
177;SDS011;77;48.792;9.032;2023-04-24T07:05:46;4.90;;;3.57;;
177;SDS011;77;48.792;9.032;2023-04-24T07:08:12;6.57;;;3.50;;
177;SDS011;77;48.792;9.032;2023-04-24T07:10:37;4.40;;;2.90;;
177;SDS011;77;48.792;9.032;2023-04-24T07:13:02;4.70;;;3.13;;
177;SDS011;77;48.792;9.032;2023-04-24T07:15:27;6.83;;;3.20;;
177;SDS011;77;48.792;9.032;2023-04-24T07:17:52;4.90;;;3.37;;
177;SDS011;77;48.792;9.032;2023-04-24T07:20:19;5.67;;;3.40;;
177;SDS011;77;48.792;9.032;2023-04-24T07:22:44;4.90;;;3.23;;
177;SDS011;77;48.792;9.032;2023-04-24T07:25:09;5.67;;;3.00;;
177;SDS011;77;48.792;9.032;2023-04-24T07:27:34;7.20;;;3.30;;
177;SDS011;77;48.792;9.032;2023-04-24T07:30:00;6.20;;;3.10;;
177;SDS011;77;48.792;9.032;2023-04-24T07:32:25;4.70;;;2.87;;
177;SDS011;77;48.792;9.032;2023-04-24T07:34:50;7.40;;;3.40;;
177;SDS011;77;48.792;9.032;2023-04-24T07:37:16;4.30;;;3.00;;
177;SDS011;77;48.792;9.032;2023-04-24T07:39:42;4.77;;;2.90;;
177;SDS011;77;48.792;9.032;2023-04-24T07:42:07;5.00;;;2.87;;
177;SDS011;77;48.792;9.032;2023-04-24T07:44:32;5.00;;;2.80;;
177;SDS011;77;48.792;9.032;2023-04-24T07:46:57;6.65;;;2.85;;
177;SDS011;77;48.792;9.032;2023-04-24T07:49:22;5.17;;;2.90;;
177;SDS011;77;48.792;9.032;2023-04-24T07:51:48;5.53;;;2.50;;
177;SDS011;77;48.792;9.032;2023-04-24T07:54:15;6.33;;;2.60;;
177;SDS011;77;48.792;9.032;2023-04-24T07:56:40;7.03;;;2.97;;
177;SDS011;77;48.792;9.032;2023-04-24T07:59:05;5.43;;;2.83;;
177;SDS011;77;48.792;9.032;2023-04-24T08:01:30;6.73;;;3.00;;
177;SDS011;77;48.792;9.032;2023-04-24T08:03:56;7.93;;;2.80;;
177;SDS011;77;48.792;9.032;2023-04-24T08:06:21;5.77;;;2.87;;
177;SDS011;77;48.792;9.032;2023-04-24T08:08:46;5.00;;;2.83;;
177;SDS011;77;48.792;9.032;2023-04-24T08:11:12;4.73;;;2.80;;
177;SDS011;77;48.792;9.032;2023-04-24T08:13:37;6.13;;;2.77;;
177;SDS011;77;48.792;9.032;2023-04-24T08:16:03;6.00;;;2.80;;
177;SDS011;77;48.792;9.032;2023-04-24T08:18:28;5.20;;;2.90;;
177;SDS011;77;48.792;9.032;2023-04-24T08:20:53;5.20;;;2.77;;
177;SDS011;77;48.792;9.032;2023-04-24T08:23:18;4.60;;;2.63;;
177;SDS011;77;48.792;9.032;2023-04-24T08:25:43;6.47;;;2.90;;
177;SDS011;77;48.792;9.032;2023-04-24T08:28:10;6.00;;;3.00;;
177;SDS011;77;48.792;9.032;2023-04-24T08:30:35;6.57;;;3.47;;
177;SDS011;77;48.792;9.032;2023-04-24T08:33:00;6.07;;;2.87;;
177;SDS011;77;48.792;9.032;2023-04-24T08:35:25;5.30;;;3.17;;
177;SDS011;77;48.792;9.032;2023-04-24T08:37:51;5.00;;;2.90;;
177;SDS011;77;48.792;9.032;2023-04-24T08:40:16;6.50;;;3.23;;
177;SDS011;77;48.792;9.032;2023-04-24T08:42:42;6.40;;;3.00;;
177;SDS011;77;48.792;9.032;2023-04-24T08:45:09;5.93;;;2.80;;
177;SDS011;77;48.792;9.032;2023-04-24T08:47:34;4.80;;;2.70;;
177;SDS011;77;48.792;9.032;2023-04-24T08:50:00;5.77;;;3.20;;
177;SDS011;77;48.792;9.032;2023-04-24T08:52:26;5.80;;;3.03;;
177;SDS011;77;48.792;9.032;2023-04-24T08:54:52;5.00;;;3.00;;
177;SDS011;77;48.792;9.032;2023-04-24T08:57:17;5.67;;;3.33;;
177;SDS011;77;48.792;9.032;2023-04-24T08:59:43;5.57;;;2.80;;
177;SDS011;77;48.792;9.032;2023-04-24T09:02:11;6.27;;;3.30;;
177;SDS011;77;48.792;9.032;2023-04-24T09:04:36;4.67;;;2.80;;
177;SDS011;77;48.792;9.032;2023-04-24T09:07:02;5.40;;;3.20;;
177;SDS011;77;48.792;9.032;2023-04-24T09:09:28;6.80;;;3.40;;
177;SDS011;77;48.792;9.032;2023-04-24T09:11:54;4.93;;;2.80;;
177;SDS011;77;48.792;9.032;2023-04-24T09:14:20;4.20;;;2.50;;
177;SDS011;77;48.792;9.032;2023-04-24T09:16:45;4.20;;;2.60;;
177;SDS011;77;48.792;9.032;2023-04-24T09:19:12;4.47;;;2.80;;
177;SDS011;77;48.792;9.032;2023-04-24T09:21:37;6.17;;;3.40;;
177;SDS011;77;48.792;9.032;2023-04-24T09:24:05;5.40;;;3.03;;
177;SDS011;77;48.792;9.032;2023-04-24T09:26:30;5.00;;;2.90;;
177;SDS011;77;48.792;9.032;2023-04-24T09:28:55;5.80;;;3.10;;
177;SDS011;77;48.792;9.032;2023-04-24T09:31:20;5.53;;;3.17;;
177;SDS011;77;48.792;9.032;2023-04-24T09:33:53;4.77;;;3.00;;
177;SDS011;77;48.792;9.032;2023-04-24T09:36:19;5.23;;;2.80;;
177;SDS011;77;48.792;9.032;2023-04-24T09:38:53;5.90;;;3.30;;
177;SDS011;77;48.792;9.032;2023-04-24T09:41:18;5.17;;;2.90;;
177;SDS011;77;48.792;9.032;2023-04-24T09:43:44;5.70;;;2.83;;
177;SDS011;77;48.792;9.032;2023-04-24T09:46:09;5.50;;;2.73;;
177;SDS011;77;48.792;9.032;2023-04-24T09:48:35;7.10;;;3.00;;
177;SDS011;77;48.792;9.032;2023-04-24T09:51:00;5.30;;;2.70;;
177;SDS011;77;48.792;9.032;2023-04-24T09:53:28;4.40;;;2.40;;
177;SDS011;77;48.792;9.032;2023-04-24T09:55:54;4.77;;;2.73;;
177;SDS011;77;48.792;9.032;2023-04-24T09:58:24;5.40;;;2.80;;
177;SDS011;77;48.792;9.032;2023-04-24T10:00:49;5.03;;;2.60;;
177;SDS011;77;48.792;9.032;2023-04-24T10:03:18;9.30;;;2.60;;
177;SDS011;77;48.792;9.032;2023-04-24T10:05:44;5.70;;;2.73;;
177;SDS011;77;48.792;9.032;2023-04-24T10:08:11;4.53;;;2.53;;
177;SDS011;77;48.792;9.032;2023-04-24T10:10:38;10.10;;;3.13;;
177;SDS011;77;48.792;9.032;2023-04-24T10:13:04;4.40;;;2.20;;
177;SDS011;77;48.792;9.032;2023-04-24T10:15:29;4.83;;;2.40;;
177;SDS011;77;48.792;9.032;2023-04-24T10:17:54;4.50;;;2.60;;
177;SDS011;77;48.792;9.032;2023-04-24T10:20:24;4.70;;;2.50;;
177;SDS011;77;48.792;9.032;2023-04-24T10:22:50;4.60;;;2.50;;
177;SDS011;77;48.792;9.032;2023-04-24T10:25:16;4.37;;;2.53;;
177;SDS011;77;48.792;9.032;2023-04-24T10:27:43;4.50;;;2.70;;
177;SDS011;77;48.792;9.032;2023-04-24T10:30:08;5.70;;;3.00;;
177;SDS011;77;48.792;9.032;2023-04-24T10:32:36;5.53;;;2.70;;
177;SDS011;77;48.792;9.032;2023-04-24T10:35:01;4.10;;;2.50;;
177;SDS011;77;48.792;9.032;2023-04-24T10:37:26;5.40;;;2.47;;
177;SDS011;77;48.792;9.032;2023-04-24T10:39:51;5.03;;;2.73;;
177;SDS011;77;48.792;9.032;2023-04-24T10:42:17;5.90;;;2.83;;
177;SDS011;77;48.792;9.032;2023-04-24T10:44:43;5.27;;;2.60;;
177;SDS011;77;48.792;9.032;2023-04-24T10:47:12;4.83;;;2.70;;
177;SDS011;77;48.792;9.032;2023-04-24T10:49:38;5.40;;;2.60;;
177;SDS011;77;48.792;9.032;2023-04-24T10:52:03;5.80;;;2.67;;
177;SDS011;77;48.792;9.032;2023-04-24T10:54:29;5.33;;;2.60;;
177;SDS011;77;48.792;9.032;2023-04-24T10:59:35;5.33;;;2.50;;
177;SDS011;77;48.792;9.032;2023-04-24T11:02:01;5.80;;;2.40;;
177;SDS011;77;48.792;9.032;2023-04-24T11:04:30;5.23;;;2.57;;
177;SDS011;77;48.792;9.032;2023-04-24T11:06:55;4.73;;;2.40;;
177;SDS011;77;48.792;9.032;2023-04-24T11:09:21;4.47;;;2.60;;
177;SDS011;77;48.792;9.032;2023-04-24T11:11:46;4.80;;;2.83;;
177;SDS011;77;48.792;9.032;2023-04-24T11:14:13;6.43;;;2.90;;
177;SDS011;77;48.792;9.032;2023-04-24T11:16:42;5.80;;;2.73;;
177;SDS011;77;48.792;9.032;2023-04-24T11:19:09;5.30;;;2.90;;
177;SDS011;77;48.792;9.032;2023-04-24T11:21:41;6.00;;;3.20;;
177;SDS011;77;48.792;9.032;2023-04-24T11:24:23;5.33;;;2.80;;
177;SDS011;77;48.792;9.032;2023-04-24T11:26:48;6.20;;;2.90;;
177;SDS011;77;48.792;9.032;2023-04-24T11:29:13;5.47;;;3.07;;
177;SDS011;77;48.792;9.032;2023-04-24T11:31:39;5.90;;;3.00;;
177;SDS011;77;48.792;9.032;2023-04-24T11:34:09;4.17;;;2.47;;
177;SDS011;77;48.792;9.032;2023-04-24T11:36:35;6.17;;;2.77;;
177;SDS011;77;48.792;9.032;2023-04-24T11:39:00;5.37;;;2.50;;
177;SDS011;77;48.792;9.032;2023-04-24T11:41:26;4.40;;;2.50;;
177;SDS011;77;48.792;9.032;2023-04-24T11:43:51;5.17;;;2.70;;
177;SDS011;77;48.792;9.032;2023-04-24T11:46:17;5.47;;;2.90;;
177;SDS011;77;48.792;9.032;2023-04-24T11:48:44;4.83;;;2.73;;
177;SDS011;77;48.792;9.032;2023-04-24T11:51:11;5.30;;;2.83;;
177;SDS011;77;48.792;9.032;2023-04-24T11:53:36;5.10;;;3.07;;
177;SDS011;77;48.792;9.032;2023-04-24T11:56:02;5.00;;;3.00;;
177;SDS011;77;48.792;9.032;2023-04-24T11:58:27;5.60;;;3.27;;
177;SDS011;77;48.792;9.032;2023-04-24T12:00:55;5.77;;;3.40;;
177;SDS011;77;48.792;9.032;2023-04-24T12:03:21;5.03;;;2.90;;
177;SDS011;77;48.792;9.032;2023-04-24T12:05:46;5.10;;;3.10;;
177;SDS011;77;48.792;9.032;2023-04-24T12:08:12;5.47;;;3.13;;
177;SDS011;77;48.792;9.032;2023-04-24T12:10:51;5.17;;;3.10;;
177;SDS011;77;48.792;9.032;2023-04-24T12:13:16;5.60;;;2.80;;
177;SDS011;77;48.792;9.032;2023-04-24T12:15:41;6.70;;;3.20;;
177;SDS011;77;48.792;9.032;2023-04-24T12:18:07;7.87;;;4.77;;
177;SDS011;77;48.792;9.032;2023-04-24T12:20:36;5.27;;;2.90;;
177;SDS011;77;48.792;9.032;2023-04-24T12:23:01;5.30;;;3.20;;
177;SDS011;77;48.792;9.032;2023-04-24T12:25:28;5.63;;;3.07;;
177;SDS011;77;48.792;9.032;2023-04-24T12:27:55;7.40;;;3.20;;
177;SDS011;77;48.792;9.032;2023-04-24T12:30:21;5.40;;;2.90;;
177;SDS011;77;48.792;9.032;2023-04-24T12:32:46;5.60;;;2.80;;
177;SDS011;77;48.792;9.032;2023-04-24T12:35:12;9.23;;;2.90;;
177;SDS011;77;48.792;9.032;2023-04-24T12:37:37;4.90;;;2.90;;
177;SDS011;77;48.792;9.032;2023-04-24T12:40:03;6.03;;;3.63;;
177;SDS011;77;48.792;9.032;2023-04-24T12:42:30;6.27;;;3.20;;
177;SDS011;77;48.792;9.032;2023-04-24T12:44:56;4.90;;;2.93;;
177;SDS011;77;48.792;9.032;2023-04-24T12:47:21;4.77;;;2.63;;
177;SDS011;77;48.792;9.032;2023-04-24T12:49:46;6.10;;;2.87;;
177;SDS011;77;48.792;9.032;2023-04-24T12:52:11;6.10;;;2.80;;
177;SDS011;77;48.792;9.032;2023-04-24T12:54:37;6.13;;;2.90;;
177;SDS011;77;48.792;9.032;2023-04-24T12:57:02;5.80;;;3.33;;
177;SDS011;77;48.792;9.032;2023-04-24T12:59:29;5.43;;;3.50;;
177;SDS011;77;48.792;9.032;2023-04-24T13:01:54;4.73;;;3.03;;
177;SDS011;77;48.792;9.032;2023-04-24T13:04:19;4.60;;;3.10;;
177;SDS011;77;48.792;9.032;2023-04-24T13:06:44;5.80;;;3.50;;
177;SDS011;77;48.792;9.032;2023-04-24T13:09:09;5.53;;;3.60;;
177;SDS011;77;48.792;9.032;2023-04-24T13:11:34;5.50;;;3.67;;
177;SDS011;77;48.792;9.032;2023-04-24T13:14:00;6.10;;;3.70;;
177;SDS011;77;48.792;9.032;2023-04-24T13:16:26;5.10;;;3.37;;
177;SDS011;77;48.792;9.032;2023-04-24T13:18:51;5.30;;;3.43;;
177;SDS011;77;48.792;9.032;2023-04-24T13:21:17;6.70;;;3.77;;
177;SDS011;77;48.792;9.032;2023-04-24T13:23:42;7.00;;;3.70;;
177;SDS011;77;48.792;9.032;2023-04-24T13:26:07;4.90;;;3.10;;
177;SDS011;77;48.792;9.032;2023-04-24T13:28:32;5.10;;;3.27;;
177;SDS011;77;48.792;9.032;2023-04-24T13:30:58;5.03;;;3.10;;
177;SDS011;77;48.792;9.032;2023-04-24T13:33:24;5.43;;;3.40;;
177;SDS011;77;48.792;9.032;2023-04-24T13:35:49;6.70;;;3.40;;
177;SDS011;77;48.792;9.032;2023-04-24T13:38:15;7.00;;;3.80;;
177;SDS011;77;48.792;9.032;2023-04-24T13:40:40;6.53;;;3.40;;
177;SDS011;77;48.792;9.032;2023-04-24T13:43:05;5.30;;;2.97;;
177;SDS011;77;48.792;9.032;2023-04-24T13:45:30;4.80;;;2.80;;
177;SDS011;77;48.792;9.032;2023-04-24T13:47:55;5.27;;;3.43;;
177;SDS011;77;48.792;9.032;2023-04-24T13:50:22;6.97;;;3.00;;
177;SDS011;77;48.792;9.032;2023-04-24T13:52:47;4.60;;;2.70;;
177;SDS011;77;48.792;9.032;2023-04-24T13:55:13;5.23;;;2.77;;
177;SDS011;77;48.792;9.032;2023-04-24T13:57:38;4.43;;;2.53;;
177;SDS011;77;48.792;9.032;2023-04-24T14:00:03;5.17;;;3.00;;
177;SDS011;77;48.792;9.032;2023-04-24T14:02:29;6.17;;;3.50;;
177;SDS011;77;48.792;9.032;2023-04-24T14:04:54;6.33;;;3.63;;
177;SDS011;77;48.792;9.032;2023-04-24T14:07:21;5.57;;;3.43;;
177;SDS011;77;48.792;9.032;2023-04-24T14:09:46;6.20;;;3.50;;
177;SDS011;77;48.792;9.032;2023-04-24T14:12:11;5.60;;;3.43;;
177;SDS011;77;48.792;9.032;2023-04-24T14:14:36;4.90;;;3.13;;
177;SDS011;77;48.792;9.032;2023-04-24T14:17:01;5.90;;;3.00;;
177;SDS011;77;48.792;9.032;2023-04-24T14:19:27;5.23;;;3.13;;
177;SDS011;77;48.792;9.032;2023-04-24T14:21:52;4.77;;;3.00;;
177;SDS011;77;48.792;9.032;2023-04-24T14:24:19;5.17;;;3.23;;
177;SDS011;77;48.792;9.032;2023-04-24T14:26:44;6.10;;;3.00;;
177;SDS011;77;48.792;9.032;2023-04-24T14:29:09;4.97;;;3.40;;
177;SDS011;77;48.792;9.032;2023-04-24T14:31:34;5.90;;;3.03;;
177;SDS011;77;48.792;9.032;2023-04-24T14:33:59;6.27;;;3.30;;
177;SDS011;77;48.792;9.032;2023-04-24T14:36:25;6.60;;;3.80;;
177;SDS011;77;48.792;9.032;2023-04-24T14:38:50;7.07;;;3.93;;
177;SDS011;77;48.792;9.032;2023-04-24T14:41:16;7.77;;;4.30;;
177;SDS011;77;48.792;9.032;2023-04-24T14:43:42;8.37;;;4.37;;
177;SDS011;77;48.792;9.032;2023-04-24T14:46:07;5.13;;;3.20;;
177;SDS011;77;48.792;9.032;2023-04-24T14:48:32;5.60;;;3.27;;
177;SDS011;77;48.792;9.032;2023-04-24T14:50:57;7.77;;;3.43;;
177;SDS011;77;48.792;9.032;2023-04-24T14:53:22;6.10;;;3.13;;
177;SDS011;77;48.792;9.032;2023-04-24T14:55:47;6.27;;;3.17;;
177;SDS011;77;48.792;9.032;2023-04-24T14:58:14;9.20;;;3.40;;
177;SDS011;77;48.792;9.032;2023-04-24T15:00:39;5.93;;;3.53;;
177;SDS011;77;48.792;9.032;2023-04-24T15:03:04;5.30;;;3.27;;
177;SDS011;77;48.792;9.032;2023-04-24T15:05:30;6.90;;;3.30;;
177;SDS011;77;48.792;9.032;2023-04-24T15:07:55;7.23;;;3.80;;
177;SDS011;77;48.792;9.032;2023-04-24T15:10:20;6.93;;;4.10;;
177;SDS011;77;48.792;9.032;2023-04-24T15:12:45;7.53;;;4.03;;
177;SDS011;77;48.792;9.032;2023-04-24T15:15:12;7.20;;;3.70;;
177;SDS011;77;48.792;9.032;2023-04-24T15:17:37;6.33;;;3.73;;
177;SDS011;77;48.792;9.032;2023-04-24T15:20:02;6.10;;;3.50;;
177;SDS011;77;48.792;9.032;2023-04-24T15:22:27;7.67;;;3.70;;
177;SDS011;77;48.792;9.032;2023-04-24T15:24:53;9.53;;;4.43;;
177;SDS011;77;48.792;9.032;2023-04-24T15:27:18;8.07;;;4.50;;
177;SDS011;77;48.792;9.032;2023-04-24T15:29:43;7.97;;;4.13;;
177;SDS011;77;48.792;9.032;2023-04-24T15:32:10;7.23;;;3.90;;
177;SDS011;77;48.792;9.032;2023-04-24T15:34:35;5.50;;;3.40;;
177;SDS011;77;48.792;9.032;2023-04-24T15:37:00;6.73;;;4.10;;
177;SDS011;77;48.792;9.032;2023-04-24T15:39:25;6.03;;;3.30;;
177;SDS011;77;48.792;9.032;2023-04-24T15:41:51;5.80;;;3.40;;
177;SDS011;77;48.792;9.032;2023-04-24T15:44:16;6.70;;;3.30;;
177;SDS011;77;48.792;9.032;2023-04-24T15:46:41;6.50;;;3.73;;
177;SDS011;77;48.792;9.032;2023-04-24T15:49:07;6.50;;;3.40;;
177;SDS011;77;48.792;9.032;2023-04-24T15:51:33;6.17;;;3.60;;
177;SDS011;77;48.792;9.032;2023-04-24T15:53:58;5.57;;;3.40;;